Time;durP1;ratioP1;P1;durP2;ratioP2;P2;SDS_P1;SDS_P2;PMS_P1;PMS_P2;Temp;Humidity;BMP_temperature;BMP_pressure;BME280_temperature;BME280_humidity;BME280_pressure;Samples;Min_cycle;Max_cycle;Signal;HPM_P1;HPM_P2
2023/02/09 00:01:06;;;;;;;17.07;9.43;;;;;;;-6.18;69.70;99946.72;7507356;23;20214;-59
2023/02/09 00:04:08;;;;;;;20.20;11.43;;;;;;;-6.26;69.83;99939.31;7508564;23;20301;-56
2023/02/09 00:07:10;;;;;;;20.87;10.27;;;;;;;-6.38;70.06;99907.09;7509849;23;20218;-59
2023/02/09 00:10:12;;;;;;;18.97;9.93;;;;;;;-6.26;69.60;99940.16;7508026;23;20685;-58
2023/02/09 00:13:24;;;;;;;16.07;9.00;;;;;;;-6.20;69.53;99930.41;7508710;23;20246;-59
2023/02/09 00:16:25;;;;;;;17.10;10.43;;;;;;;-6.16;69.58;99930.13;7507319;23;20229;-57
2023/02/09 00:19:28;;;;;;;18.77;10.00;;;;;;;-6.20;69.86;99923.47;7507722;23;20531;-56
2023/02/09 00:22:33;;;;;;;20.70;10.47;;;;;;;-6.35;69.98;99929.44;7508523;23;20554;-57
2023/02/09 00:25:39;;;;;;;19.63;10.33;;;;;;;-6.29;70.50;99932.56;7508848;23;20270;-58
2023/02/09 00:28:41;;;;;;;16.87;9.80;;;;;;;-6.26;70.35;99926.34;7508503;23;20548;-58
2023/02/09 00:31:43;;;;;;;17.40;9.67;;;;;;;-6.44;70.51;99902.25;7508068;23;20230;-59
2023/02/09 00:34:45;;;;;;;18.77;11.10;;;;;;;-6.22;70.55;99919.25;7506630;23;20289;-58
2023/02/09 00:37:47;;;;;;;20.27;10.83;;;;;;;-6.28;70.99;99916.06;7507377;23;20221;-59
2023/02/09 00:40:50;;;;;;;21.17;11.17;;;;;;;-6.25;70.71;99907.31;7508053;23;20261;-59
2023/02/09 00:43:54;;;;;;;21.47;11.27;;;;;;;-6.25;70.90;99904.72;7508328;23;20238;-57
2023/02/09 00:46:56;;;;;;;18.07;10.50;;;;;;;-6.16;70.64;99901.59;7507137;23;20225;-58
2023/02/09 00:49:58;;;;;;;20.83;10.60;;;;;;;-6.17;70.52;99899.94;7506871;23;20306;-57
2023/02/09 00:53:02;;;;;;;20.43;10.77;;;;;;;-6.13;71.02;99898.84;7506065;23;20713;-57
2023/02/09 00:56:05;;;;;;;21.00;12.30;;;;;;;-6.18;71.09;99890.47;7507131;23;20527;-56
2023/02/09 00:59:07;;;;;;;22.97;12.73;;;;;;;-6.21;71.39;99867.28;7506245;23;20675;-58
2023/02/09 01:02:09;;;;;;;24.37;14.10;;;;;;;-6.10;71.29;99880.53;7507034;23;20608;-58
2023/02/09 01:05:12;;;;;;;23.77;12.33;;;;;;;-6.19;71.68;99881.03;7508470;23;20214;-56
2023/02/09 01:08:14;;;;;;;20.70;11.80;;;;;;;-6.04;71.82;99880.22;7507241;23;20221;-57
2023/02/09 01:15:57;;;;;;;20.30;11.73;;;;;;;-6.04;71.52;99846.47;7505466;23;20203;-59
2023/02/09 01:19:01;;;;;;;19.47;11.90;;;;;;;-5.87;71.68;99862.84;7507536;23;20210;-57
2023/02/09 01:22:03;;;;;;;20.40;11.20;;;;;;;-6.10;71.96;99815.69;7505542;23;20222;-58
2023/02/09 01:25:08;;;;;;;25.83;13.50;;;;;;;-5.93;71.96;99845.06;7507899;23;20211;-59
2023/02/09 01:28:10;;;;;;;22.23;11.97;;;;;;;-6.00;72.61;99850.59;7508252;23;20210;-57
2023/02/09 01:31:20;;;;;;;18.57;11.10;;;;;;;-5.88;72.73;99830.03;7508279;23;20217;-58
2023/02/09 01:34:24;;;;;;;22.53;11.53;;;;;;;-5.85;72.45;99848.03;7508080;23;20625;-58
2023/02/09 01:37:26;;;;;;;21.30;11.80;;;;;;;-5.77;72.28;99838.06;7505707;23;20237;-58
2023/02/09 01:40:29;;;;;;;24.53;12.97;;;;;;;-5.91;72.86;99835.41;7506926;23;20297;-57
2023/02/09 01:44:00;;;;;;;22.93;12.30;;;;;;;-5.86;73.03;99823.84;7506772;23;20277;-57
2023/02/09 01:47:02;;;;;;;19.70;10.67;;;;;;;-5.84;73.38;99809.03;7507159;23;20222;-57
2023/02/09 01:50:05;;;;;;;22.43;11.33;;;;;;;-5.63;73.01;99821.72;7507417;23;20234;-58
2023/02/09 01:53:09;;;;;;;24.93;12.90;;;;;;;-5.73;72.89;99785.06;7508178;23;20262;-55
2023/02/09 01:56:20;;;;;;;21.73;11.83;;;;;;;-5.53;72.54;99810.72;7507163;23;20329;-57
2023/02/09 01:59:23;;;;;;;18.33;10.67;;;;;;;-5.77;72.60;99765.38;7505888;23;20210;-57
2023/02/09 02:02:25;;;;;;;22.53;11.50;;;;;;;-5.57;72.64;99804.00;7505855;23;20294;-57
2023/02/09 02:05:30;;;;;;;20.57;11.67;;;;;;;-5.56;72.71;99799.69;7507633;23;20261;-58
2023/02/09 02:08:39;;;;;;;21.43;12.07;;;;;;;-5.61;73.04;99793.94;7506788;23;20214;-57
2023/02/09 02:11:45;;;;;;;19.87;11.40;;;;;;;-5.71;73.39;99786.66;7507543;23;20217;-58
2023/02/09 02:14:48;;;;;;;20.37;11.10;;;;;;;-5.58;73.25;99788.53;7507162;23;20214;-59
2023/02/09 02:18:12;;;;;;;22.53;12.50;;;;;;;-5.57;72.99;99785.84;7503142;23;20221;-56
2023/02/09 02:21:33;;;;;;;20.17;10.47;;;;;;;-5.48;72.53;99785.31;7506594;23;20203;-57
2023/02/09 02:25:13;;;;;;;19.27;10.23;;;;;;;-5.52;72.68;99776.03;7505238;23;20207;-58
2023/02/09 02:28:38;;;;;;;20.37;11.13;;;;;;;-5.53;72.28;99776.13;7504840;23;20210;-59
2023/02/09 02:32:17;;;;;;;18.20;10.90;;;;;;;-5.52;72.60;99770.84;7507593;23;20210;-58
2023/02/09 02:35:31;;;;;;;20.47;10.83;;;;;;;-5.53;72.63;99770.94;7506643;23;20215;-56
2023/02/09 02:39:21;;;;;;;19.60;10.40;;;;;;;-5.38;72.17;99766.63;7506090;23;20215;-56
2023/02/09 02:42:56;;;;;;;19.03;11.87;;;;;;;-5.42;71.88;99760.75;7496358;23;20236;-57
2023/02/09 02:46:09;;;;;;;20.50;11.50;;;;;;;-5.57;71.70;99715.75;7489837;23;20583;-56
2023/02/09 02:49:14;;;;;;;19.13;10.97;;;;;;;-5.30;71.22;99754.84;7506692;23;20223;-54
2023/02/09 02:52:16;;;;;;;15.43;9.87;;;;;;;-5.27;70.98;99751.22;7505823;23;20220;-58
2023/02/09 02:55:23;;;;;;;17.00;10.30;;;;;;;-5.28;70.59;99752.16;7506828;23;20317;-58
2023/02/09 02:58:27;;;;;;;19.17;10.20;;;;;;;-5.48;70.54;99724.75;7506100;23;20214;-58
2023/02/09 03:01:39;;;;;;;18.03;10.70;;;;;;;-5.43;69.91;99759.09;7506942;23;20428;-55
2023/02/09 03:04:44;;;;;;;16.73;10.33;;;;;;;-5.41;70.01;99751.22;7506886;23;20664;-58
2023/02/09 03:07:46;;;;;;;19.00;10.40;;;;;;;-5.57;69.86;99759.88;7506215;23;20272;-57
2023/02/09 03:10:48;;;;;;;18.63;9.77;;;;;;;-5.75;70.41;99754.00;7506680;23;20256;-58
2023/02/09 03:14:26;;;;;;;15.63;9.70;;;;;;;-5.84;69.95;99735.53;7505931;23;20245;-59
2023/02/09 03:17:54;;;;;;;18.47;10.43;;;;;;;-5.80;70.00;99755.19;7506082;23;20214;-57
2023/02/09 03:21:15;;;;;;;18.33;10.23;;;;;;;-5.78;70.05;99755.94;7497229;23;20679;-58
2023/02/09 03:24:42;;;;;;;19.10;10.17;;;;;;;-5.86;70.11;99756.38;7506922;23;20230;-57
2023/02/09 03:27:59;;;;;;;16.53;9.37;;;;;;;-5.85;70.11;99762.41;7506043;23;20234;-59
2023/02/09 03:31:02;;;;;;;20.70;9.63;;;;;;;-6.16;70.42;99708.81;7507755;23;20211;-58
2023/02/09 03:34:05;;;;;;;20.17;10.73;;;;;;;-5.89;69.72;99751.34;7509478;23;20214;-57
2023/02/09 03:37:07;;;;;;;19.00;10.00;;;;;;;-5.89;70.03;99755.72;7509735;23;20273;-58
2023/02/09 03:40:10;;;;;;;18.57;10.27;;;;;;;-5.97;70.11;99751.81;7510378;23;20663;-58
2023/02/09 03:43:12;;;;;;;18.23;9.37;;;;;;;-5.92;70.09;99753.31;7508711;23;20214;-58
2023/02/09 03:46:14;;;;;;;17.50;9.73;;;;;;;-6.00;70.38;99764.13;7509659;23;20222;-58
2023/02/09 03:49:16;;;;;;;17.40;10.33;;;;;;;-6.09;70.36;99769.84;7511478;23;20210;-57
2023/02/09 03:52:19;;;;;;;19.50;11.90;;;;;;;-6.14;70.70;99756.28;7515848;23;20587;-56
2023/02/09 03:55:21;;;;;;;19.83;10.93;;;;;;;-6.02;70.66;99764.19;7514246;23;20692;-58
2023/02/09 03:58:23;;;;;;;20.67;9.70;;;;;;;-6.09;70.62;99749.91;7510811;23;20259;-55
2023/02/09 04:01:25;;;;;;;17.40;9.93;;;;;;;-5.99;70.59;99745.88;7508880;23;20210;-57
2023/02/09 04:04:27;;;;;;;18.67;10.30;;;;;;;-6.04;70.43;99742.72;7508246;23;20207;-56
2023/02/09 04:07:29;;;;;;;16.97;9.77;;;;;;;-5.98;70.66;99749.31;7508878;23;20214;-57
2023/02/09 04:10:32;;;;;;;15.80;8.97;;;;;;;-5.91;70.67;99747.19;7508388;23;20773;-58
2023/02/09 04:13:34;;;;;;;21.93;10.53;;;;;;;-5.93;70.46;99752.47;7510099;23;20675;-57
2023/02/09 04:16:36;;;;;;;15.73;9.60;;;;;;;-6.15;70.72;99723.50;7508348;23;20210;-57
2023/02/09 04:19:38;;;;;;;18.07;10.33;;;;;;;-6.07;71.45;99752.41;7509079;23;20269;-58
2023/02/09 04:22:41;;;;;;;15.97;9.57;;;;;;;-5.91;71.31;99762.75;7508937;23;20297;-57
2023/02/09 04:25:43;;;;;;;16.87;9.70;;;;;;;-5.97;71.22;99751.81;7506504;23;20253;-57
2023/02/09 04:28:45;;;;;;;18.50;9.90;;;;;;;-5.87;71.04;99759.88;7508212;23;20234;-59
2023/02/09 04:31:47;;;;;;;16.27;9.77;;;;;;;-5.82;71.27;99760.44;7508525;23;20546;-56
2023/02/09 04:34:49;;;;;;;17.27;9.63;;;;;;;-5.91;70.53;99731.63;7508726;23;20314;-57
2023/02/09 04:37:52;;;;;;;17.30;10.30;;;;;;;-5.80;70.64;99752.59;7509044;23;20269;-57
2023/02/09 04:40:58;;;;;;;19.13;9.93;;;;;;;-5.82;70.40;99757.03;7506557;23;20269;-58
2023/02/09 04:44:00;;;;;;;18.97;9.53;;;;;;;-5.83;69.80;99745.81;7507626;23;20218;-55
2023/02/09 04:47:02;;;;;;;17.87;9.57;;;;;;;-5.83;70.00;99753.59;7506202;23;20218;-57
2023/02/09 04:50:05;;;;;;;15.60;9.07;;;;;;;-6.12;70.10;99703.38;7507947;23;20626;-58
2023/02/09 04:53:07;;;;;;;16.60;10.07;;;;;;;-5.82;70.26;99749.25;7508345;23;20238;-57
2023/02/09 04:56:14;;;;;;;14.97;9.20;;;;;;;-5.93;70.47;99746.44;7508325;23;20218;-56
2023/02/09 04:59:34;;;;;;;18.00;10.13;;;;;;;-5.90;70.54;99748.84;7507804;23;20217;-57
2023/02/09 05:02:37;;;;;;;15.27;8.97;;;;;;;-5.95;71.33;99745.72;7508052;23;20242;-59
2023/02/09 05:05:40;;;;;;;14.53;9.13;;;;;;;-5.80;71.09;99752.59;7507390;23;20269;-59
2023/02/09 05:08:43;;;;;;;17.30;9.27;;;;;;;-5.81;71.39;99751.75;7508098;23;20579;-59
2023/02/09 05:11:45;;;;;;;17.27;9.23;;;;;;;-5.83;71.42;99752.75;7508604;23;20234;-57
2023/02/09 05:14:47;;;;;;;14.93;8.63;;;;;;;-5.78;71.58;99746.38;7507980;23;20242;-58
2023/02/09 05:17:49;;;;;;;16.57;9.40;;;;;;;-5.73;71.36;99748.72;7506981;23;20285;-57
2023/02/09 05:20:52;;;;;;;16.67;8.60;;;;;;;-5.62;71.12;99758.47;7506490;23;20219;-58
2023/02/09 05:23:54;;;;;;;15.37;8.37;;;;;;;-5.56;70.67;99758.16;7507760;23;20691;-56
2023/02/09 05:26:56;;;;;;;12.07;7.80;;;;;;;-5.51;70.40;99751.75;7507387;23;20221;-57
2023/02/09 05:29:59;;;;;;;16.03;8.50;;;;;;;-5.43;69.88;99755.66;7508577;23;20266;-57
2023/02/09 05:33:02;;;;;;;14.50;8.50;;;;;;;-5.41;69.20;99748.63;7508012;23;20548;-55
2023/02/09 05:36:08;;;;;;;15.10;8.67;;;;;;;-5.42;69.31;99752.97;7506942;23;20756;-56
2023/02/09 05:39:10;;;;;;;17.80;9.10;;;;;;;-5.42;68.91;99754.72;7506122;23;20186;-58
2023/02/09 05:42:15;;;;;;;13.33;8.00;;;;;;;-5.43;69.17;99753.91;7507018;23;20250;-58
2023/02/09 05:45:17;;;;;;;13.13;8.17;;;;;;;-5.62;69.20;99748.09;7508123;23;20201;-57
2023/02/09 05:48:19;;;;;;;12.97;8.30;;;;;;;-5.50;69.20;99752.59;7507153;23;20589;-58
2023/02/09 05:51:22;;;;;;;14.80;7.90;;;;;;;-5.57;68.76;99752.09;7507714;23;20285;-59
2023/02/09 05:54:24;;;;;;;14.20;7.83;;;;;;;-5.57;68.38;99759.03;7506690;23;20468;-59
2023/02/09 05:57:26;;;;;;;12.27;6.87;;;;;;;-5.61;68.43;99755.81;7508077;23;20234;-57
2023/02/09 06:00:29;;;;;;;13.63;7.80;;;;;;;-5.64;68.61;99760.34;7508840;23;20213;-55
2023/02/09 06:03:31;;;;;;;11.00;7.20;;;;;;;-5.69;68.25;99765.78;7511870;23;20210;-56
2023/02/09 06:06:33;;;;;;;19.43;10.57;;;;;;;-5.85;68.14;99749.44;7514518;23;20230;-58
2023/02/09 06:09:36;;;;;;;18.03;9.20;;;;;;;-5.80;68.12;99753.44;7506152;23;20206;-57
2023/02/09 06:12:38;;;;;;;15.43;8.20;;;;;;;-5.83;67.91;99766.56;7505644;23;20207;-57
2023/02/09 06:15:42;;;;;;;12.17;7.60;;;;;;;-5.81;67.92;99763.88;7507451;23;20206;-58
2023/02/09 06:18:44;;;;;;;12.93;8.60;;;;;;;-5.86;67.96;99763.31;7507738;23;20766;-57
2023/02/09 06:21:46;;;;;;;12.53;7.00;;;;;;;-5.87;68.10;99761.63;7505952;23;20210;-56
2023/02/09 06:24:49;;;;;;;12.80;7.73;;;;;;;-5.87;67.63;99764.22;7507734;23;20233;-58
2023/02/09 06:27:51;;;;;;;13.13;7.30;;;;;;;-5.88;67.29;99765.16;7505645;23;20214;-56
2023/02/09 06:30:53;;;;;;;13.93;8.30;;;;;;;-5.90;67.25;99777.41;7507326;23;20217;-59
2023/02/09 06:33:55;;;;;;;11.73;7.90;;;;;;;-5.96;67.38;99776.00;7506769;23;20206;-59
2023/02/09 06:36:57;;;;;;;13.67;7.70;;;;;;;-6.06;67.46;99778.28;7506787;23;20596;-58
2023/02/09 06:39:59;;;;;;;12.83;7.67;;;;;;;-6.04;67.38;99783.38;7506752;23;20731;-55
2023/02/09 06:43:01;;;;;;;12.10;7.80;;;;;;;-6.17;67.54;99779.78;7507212;23;20230;-57
2023/02/09 06:46:11;;;;;;;13.57;7.90;;;;;;;-6.14;68.10;99771.84;7507192;23;20234;-58
2023/02/09 06:49:13;;;;;;;12.57;7.57;;;;;;;-6.15;67.67;99776.19;7509072;23;20282;-58
2023/02/09 06:52:15;;;;;;;15.40;8.80;;;;;;;-6.42;67.96;99731.03;7506893;23;20224;-57
2023/02/09 06:55:18;;;;;;;15.10;8.67;;;;;;;-6.19;68.00;99777.28;7506788;23;20220;-58
2023/02/09 06:58:20;;;;;;;14.07;7.47;;;;;;;-6.41;68.34;99743.88;7506460;23;20651;-56
2023/02/09 07:01:22;;;;;;;14.10;8.27;;;;;;;-6.20;68.16;99770.44;7507915;23;20685;-58
2023/02/09 07:04:24;;;;;;;12.77;7.23;;;;;;;-6.16;68.68;99764.13;7507428;23;20313;-55
2023/02/09 07:07:26;;;;;;;13.97;8.03;;;;;;;-6.12;68.72;99767.41;7505995;23;20786;-57
2023/02/09 07:10:28;;;;;;;12.63;8.10;;;;;;;-6.03;68.98;99777.28;7505430;23;20249;-59
2023/02/09 07:13:31;;;;;;;12.70;7.67;;;;;;;-6.02;69.14;99778.94;7506573;23;20222;-57
2023/02/09 07:16:34;;;;;;;14.80;8.10;;;;;;;-5.89;68.74;99774.72;7505068;23;20306;-58
2023/02/09 07:19:36;;;;;;;12.73;7.10;;;;;;;-5.89;69.05;99776.47;7506095;23;20247;-57
2023/02/09 07:22:38;;;;;;;14.07;7.83;;;;;;;-5.75;68.93;99777.38;7507895;23;20214;-58
2023/02/09 07:25:40;;;;;;;15.10;7.90;;;;;;;-5.73;68.81;99761.69;7507724;23;20215;-56
2023/02/09 07:28:42;;;;;;;13.03;6.57;;;;;;;-5.49;68.46;99772.44;7507330;23;20281;-58
2023/02/09 07:31:44;;;;;;;13.90;7.60;;;;;;;-5.42;68.15;99778.09;7507035;23;20682;-58
2023/02/09 07:34:47;;;;;;;11.07;6.53;;;;;;;-5.47;68.22;99750.66;7506325;23;20222;-58
2023/02/09 07:37:49;;;;;;;13.43;7.20;;;;;;;-5.22;67.68;99770.00;7506436;23;20214;-56
2023/02/09 07:40:51;;;;;;;10.20;6.90;;;;;;;-5.26;67.59;99751.16;7506521;23;20210;-58
2023/02/09 07:43:55;;;;;;;12.13;8.00;;;;;;;-5.20;67.73;99755.97;7506564;23;20285;-56
2023/02/09 07:46:57;;;;;;;11.80;7.57;;;;;;;-5.08;67.46;99762.19;7505667;23;20266;-56
2023/02/09 07:49:59;;;;;;;13.73;8.00;;;;;;;-5.28;67.28;99732.22;7506179;23;20211;-59
2023/02/09 07:53:02;;;;;;;14.17;7.77;;;;;;;-5.00;67.49;99766.94;7506911;23;20210;-55
2023/02/09 07:56:04;;;;;;;13.97;7.40;;;;;;;-4.93;67.64;99769.09;7506791;23;20214;-57
2023/02/09 07:59:08;;;;;;;12.63;7.33;;;;;;;-4.87;67.80;99765.28;7507987;23;20215;-59
2023/02/09 08:02:17;;;;;;;13.07;7.60;;;;;;;-4.75;67.77;99767.13;7507132;23;20222;-58
2023/02/09 08:05:32;;;;;;;12.77;7.67;;;;;;;-4.68;67.67;99763.25;7505312;23;20225;-57
2023/02/09 08:08:34;;;;;;;12.20;7.60;;;;;;;-4.62;67.80;99754.22;7507387;23;20214;-55
2023/02/09 08:11:46;;;;;;;12.97;7.57;;;;;;;-4.46;67.49;99764.50;7504634;23;20237;-58
2023/02/09 08:31:45;;;;;;;15.00;9.30;;;;;;;-3.52;65.47;99754.16;6230962;27;21065;-35
2023/02/09 08:34:47;;;;;;;15.73;9.77;;;;;;;-3.50;65.61;99719.22;6201205;27;20229;-34
2023/02/09 08:37:49;;;;;;;14.10;8.33;;;;;;;-3.17;65.06;99744.81;6196063;28;20236;-34
2023/02/09 08:40:52;;;;;;;17.20;8.97;;;;;;;-3.11;64.57;99743.56;6200437;28;20236;-34
2023/02/09 08:43:54;;;;;;;12.83;7.90;;;;;;;-2.92;62.58;99748.34;6184237;28;20720;-34
2023/02/09 08:46:56;;;;;;;13.77;8.13;;;;;;;-2.66;62.57;99751.75;6192964;28;20324;-34
2023/02/09 08:49:58;;;;;;;12.50;8.00;;;;;;;-2.51;62.53;99753.31;6201376;27;20382;-34
2023/02/09 08:53:01;;;;;;;12.90;7.50;;;;;;;-2.32;61.78;99752.84;6206554;27;20231;-35
2023/02/09 08:56:04;;;;;;;13.13;7.97;;;;;;;-2.12;61.30;99752.28;6201087;28;20228;-35
2023/02/09 08:59:06;;;;;;;12.93;8.53;;;;;;;-1.86;58.38;99754.78;6201571;28;20233;-34
2023/02/09 09:02:08;;;;;;;10.93;7.43;;;;;;;-1.64;57.01;99757.47;6198042;28;20278;-34
2023/02/09 09:05:10;;;;;;;11.87;7.70;;;;;;;-1.37;57.43;99753.78;6197146;28;20235;-34
2023/02/09 09:08:12;;;;;;;12.37;6.77;;;;;;;-1.12;56.67;99753.59;6198965;28;20449;-35
2023/02/09 09:11:14;;;;;;;11.23;7.20;;;;;;;-1.04;55.48;99724.22;6197471;28;20232;-34
2023/02/09 09:14:16;;;;;;;16.83;8.57;;;;;;;-0.55;54.04;99750.03;6196662;28;20240;-34
2023/02/09 09:17:18;;;;;;;13.30;8.10;;;;;;;-0.33;54.89;99748.38;6298411;27;20718;-35
2023/02/09 09:20:21;;;;;;;14.60;8.43;;;;;;;-0.16;54.40;99747.00;6203310;27;20239;-34
2023/02/09 09:23:23;;;;;;;15.50;9.10;;;;;;;-0.06;53.43;99745.31;6308288;27;20253;-35
2023/02/09 09:26:25;;;;;;;13.93;8.53;;;;;;;0.12;53.70;99743.84;6323287;27;20604;-34
2023/02/09 09:29:27;;;;;;;13.80;8.70;;;;;;;0.25;51.86;99741.91;6324519;27;20233;-35
2023/02/09 09:32:29;;;;;;;14.23;9.43;;;;;;;0.19;50.77;99712.72;6308756;28;20228;-35
2023/02/09 09:35:32;;;;;;;13.73;9.07;;;;;;;0.53;50.62;99737.00;6308079;28;20233;-35
2023/02/09 09:38:35;;;;;;;14.30;8.87;;;;;;;0.53;49.69;99689.78;6309312;28;20282;-35
2023/02/09 09:41:37;;;;;;;14.60;10.27;;;;;;;1.10;49.45;99735.69;6310061;28;20229;-35
2023/02/09 09:44:44;;;;;;;15.73;9.90;;;;;;;1.76;47.82;99730.81;6312535;28;20276;-35
2023/02/09 09:47:48;;;;;;;12.50;8.50;;;;;;;3.69;43.44;99739.38;6306092;28;20386;-35
2023/02/09 09:50:56;;;;;;;11.97;8.60;;;;;;;6.57;37.78;99731.22;6304950;28;20248;-35
2023/02/09 09:54:00;;;;;;;12.90;8.77;;;;;;;8.62;33.90;99724.97;6307239;28;20234;-36
2023/02/09 09:57:09;;;;;;;13.90;8.80;;;;;;;9.98;30.47;99724.63;6300776;28;20222;-35
2023/02/09 10:00:23;;;;;;;11.33;7.87;;;;;;;10.64;29.41;99734.31;6302472;28;20698;-35
2023/02/09 10:03:26;;;;;;;10.30;7.03;;;;;;;10.77;27.54;99726.44;6304914;28;20324;-36
2023/02/09 10:06:30;;;;;;;9.80;7.20;;;;;;;11.65;26.60;99719.63;6302794;28;20683;-36
2023/02/09 10:09:43;;;;;;;11.90;7.33;;;;;;;11.00;25.71;99716.38;6307644;28;20231;-36
2023/02/09 10:12:47;;;;;;;8.53;6.83;;;;;;;11.10;25.21;99714.19;6305918;28;20241;-36
2023/02/09 10:15:57;;;;;;;9.13;6.80;;;;;;;11.65;25.17;99678.75;6307377;28;20229;-36
2023/02/09 10:19:02;;;;;;;9.93;7.03;;;;;;;12.05;24.10;99709.13;6304392;28;21077;-36
2023/02/09 10:22:10;;;;;;;9.70;7.53;;;;;;;11.38;23.86;99627.94;6308081;28;20719;-36
2023/02/09 10:25:50;;;;;;;9.43;6.40;;;;;;;11.90;24.20;99693.25;6305594;28;20344;-36
2023/02/09 10:29:06;;;;;;;9.43;7.10;;;;;;;11.80;23.55;99682.91;6278511;28;20218;-36
2023/02/09 10:32:24;;;;;;;10.30;7.10;;;;;;;11.77;23.77;99679.81;6299288;28;20230;-36
2023/02/09 10:35:35;;;;;;;8.90;6.37;;;;;;;11.54;23.90;99677.50;6302455;28;20222;-36
2023/02/09 10:38:39;;;;;;;9.17;6.67;;;;;;;11.55;24.35;99671.94;6305284;28;20306;-36
2023/02/09 10:41:44;;;;;;;9.03;7.10;;;;;;;11.21;24.00;99650.63;6307032;28;20749;-35
2023/02/09 10:44:52;;;;;;;8.80;6.87;;;;;;;11.07;24.41;99671.88;6306517;28;20225;-36
2023/02/09 10:48:19;;;;;;;12.43;6.90;;;;;;;10.83;24.70;99659.84;6308087;28;20263;-36
2023/02/09 10:51:32;;;;;;;11.20;7.47;;;;;;;10.65;25.19;99659.53;6301599;28;20312;-36
2023/02/09 10:54:34;;;;;;;10.17;6.97;;;;;;;9.97;26.03;99650.25;6300282;28;20249;-36
2023/02/09 10:57:38;;;;;;;9.47;6.67;;;;;;;9.54;27.40;99656.34;6305623;28;20235;-36
2023/02/09 11:00:40;;;;;;;12.47;6.77;;;;;;;9.81;27.06;99643.34;6304799;28;20730;-36
2023/02/09 11:04:17;;;;;;;8.27;6.13;;;;;;;9.59;27.37;99652.28;6305877;28;20222;-36
2023/02/09 11:07:23;;;;;;;8.97;6.70;;;;;;;8.20;28.75;99637.78;6305816;28;20236;-36
2023/02/09 11:10:29;;;;;;;8.97;6.83;;;;;;;7.21;30.17;99613.69;6305353;28;20694;-36
2023/02/09 11:13:33;;;;;;;11.27;7.00;;;;;;;6.63;31.59;99637.88;6307179;28;20235;-35
2023/02/09 11:16:54;;;;;;;9.27;7.07;;;;;;;6.00;31.83;99635.91;6304494;28;20314;-35
2023/02/09 11:20:29;;;;;;;9.80;6.50;;;;;;;5.74;32.25;99617.50;6299323;28;20572;-35
2023/02/09 11:23:43;;;;;;;9.37;6.10;;;;;;;5.73;33.23;99618.50;6273924;28;20228;-35
2023/02/09 11:27:05;;;;;;;9.87;7.00;;;;;;;5.54;33.05;99609.03;6302547;28;20764;-36
2023/02/09 11:30:30;;;;;;;9.13;6.63;;;;;;;5.43;32.50;99607.53;6301155;28;20710;-35
2023/02/09 11:33:58;;;;;;;6.77;4.47;;;;;;;5.27;31.77;99602.16;6298590;28;20310;-35
2023/02/09 11:37:38;;;;;;;7.60;4.90;;;;;;;5.35;32.41;99605.66;6272118;28;20396;-35
2023/02/09 11:40:47;;;;;;;6.13;3.70;;;;;;;5.32;31.23;99602.50;6304022;28;20230;-36
2023/02/09 11:43:52;;;;;;;4.53;3.53;;;;;;;5.26;32.07;99597.88;6299826;28;20229;-35
2023/02/09 11:47:03;;;;;;;4.47;3.37;;;;;;;5.25;30.85;99599.69;6304340;28;20244;-36
2023/02/09 11:50:14;;;;;;;4.57;3.67;;;;;;;5.13;30.55;99579.84;6303531;28;20229;-36
2023/02/09 11:53:30;;;;;;;4.00;3.40;;;;;;;5.29;31.75;99582.53;6300313;28;20231;-36
2023/02/09 11:56:38;;;;;;;5.17;3.73;;;;;;;5.44;31.45;99602.06;6304640;28;20228;-36
2023/02/09 11:59:55;;;;;;;4.83;3.80;;;;;;;5.30;30.94;99581.53;6300089;28;20363;-35
2023/02/09 12:03:02;;;;;;;5.50;4.33;;;;;;;5.05;31.07;99585.09;6303559;28;20231;-35
2023/02/09 12:06:05;;;;;;;12.27;4.93;;;;;;;4.83;31.59;99583.88;6277077;28;20239;-37
2023/02/09 12:09:43;;;;;;;5.30;3.80;;;;;;;4.68;31.53;99585.41;6304559;28;20220;-37
2023/02/09 12:13:22;;;;;;;5.90;3.83;;;;;;;4.64;32.21;99577.81;6302655;28;20726;-37
2023/02/09 12:16:32;;;;;;;5.33;3.87;;;;;;;4.75;32.73;99574.06;6305145;28;20767;-34
2023/02/09 12:19:39;;;;;;;5.03;3.87;;;;;;;4.75;31.76;99560.06;6303094;28;20214;-35
2023/02/09 12:22:48;;;;;;;5.17;3.83;;;;;;;4.71;31.98;99562.16;6301594;28;20312;-35
2023/02/09 12:26:00;;;;;;;8.10;3.63;;;;;;;4.85;32.40;99560.75;6304823;28;20600;-34
2023/02/09 12:29:20;;;;;;;5.17;3.87;;;;;;;4.55;32.19;99547.09;6305092;28;20599;-35
2023/02/09 12:32:26;;;;;;;4.70;3.90;;;;;;;4.68;33.17;99538.75;6289358;28;20233;-34
2023/02/09 12:35:38;;;;;;;9.70;4.30;;;;;;;4.71;32.33;99545.50;6305083;28;20256;-35
2023/02/09 12:38:49;;;;;;;5.10;4.00;;;;;;;4.66;32.28;99536.25;6305955;28;20324;-35
2023/02/09 12:42:03;;;;;;;7.47;4.07;;;;;;;4.80;32.49;99534.81;6300065;28;20232;-35
2023/02/09 12:45:31;;;;;;;6.23;4.00;;;;;;;4.39;31.89;99516.16;6301859;28;20230;-35
2023/02/09 12:49:04;;;;;;;5.43;4.10;;;;;;;4.45;32.99;99517.34;6299207;28;20711;-35
2023/02/09 12:52:14;;;;;;;6.93;4.10;;;;;;;4.47;33.49;99512.72;6292315;28;20735;-35
2023/02/09 12:55:21;;;;;;;9.07;5.80;;;;;;;4.68;33.27;99514.13;6298427;28;20245;-35
2023/02/09 12:58:54;;;;;;;5.87;5.00;;;;;;;4.61;33.18;99512.13;6300935;28;20241;-36
2023/02/09 13:02:22;;;;;;;8.83;4.73;;;;;;;4.50;32.33;99511.59;6261222;28;20212;-35
2023/02/09 13:05:32;;;;;;;7.10;4.30;;;;;;;4.43;32.58;99529.84;6259961;28;20689;-35
2023/02/09 13:08:44;;;;;;;7.00;4.60;;;;;;;4.07;32.50;99476.41;6261832;28;20619;-35
2023/02/09 13:11:50;;;;;;;6.93;4.50;;;;;;;4.28;32.53;99505.03;6264958;28;20227;-34
2023/02/09 13:14:52;;;;;;;7.63;4.10;;;;;;;4.35;32.95;99500.81;6263841;28;20665;-35
2023/02/09 13:18:32;;;;;;;5.97;4.77;;;;;;;4.39;32.43;99499.50;6262558;28;20672;-35
2023/02/09 13:21:56;;;;;;;6.43;4.50;;;;;;;4.29;32.95;99497.00;6228573;28;20644;-35
2023/02/09 13:25:08;;;;;;;6.17;4.40;;;;;;;4.21;32.84;99481.09;6264510;28;20280;-35
2023/02/09 13:28:25;;;;;;;5.27;4.07;;;;;;;4.38;33.29;99498.69;6262650;28;20605;-35
2023/02/09 13:31:35;;;;;;;7.27;4.43;;;;;;;4.26;33.76;99491.19;6261081;28;20236;-34
2023/02/09 13:35:05;;;;;;;7.40;4.17;;;;;;;4.20;33.12;99491.81;6262815;28;20245;-35
2023/02/09 13:38:16;;;;;;;6.83;4.17;;;;;;;4.05;32.83;99481.03;6288945;28;20229;-35
2023/02/09 13:41:37;;;;;;;5.93;4.40;;;;;;;3.94;32.72;99481.25;6302866;28;20797;-35
2023/02/09 13:44:44;;;;;;;9.00;4.80;;;;;;;3.80;32.79;99474.75;6306385;28;20368;-35
2023/02/09 13:47:46;;;;;;;8.23;5.20;;;;;;;3.65;32.96;99473.66;6298954;28;20226;-35
2023/02/09 13:50:50;;;;;;;6.43;4.73;;;;;;;3.52;33.27;99474.88;6305883;28;20322;-36
2023/02/09 13:53:59;;;;;;;6.73;4.83;;;;;;;3.51;32.91;99475.84;6307561;28;20230;-35
2023/02/09 13:57:01;;;;;;;7.20;4.60;;;;;;;3.49;33.65;99467.25;6306031;28;20261;-35
2023/02/09 14:00:15;;;;;;;8.27;4.77;;;;;;;3.51;33.85;99465.31;6302733;28;20220;-35
2023/02/09 14:03:34;;;;;;;8.00;4.63;;;;;;;3.47;33.27;99463.13;6304172;28;20218;-36
2023/02/09 14:06:46;;;;;;;8.43;4.40;;;;;;;3.29;33.12;99460.50;6303828;28;20264;-35
2023/02/09 14:09:55;;;;;;;6.10;4.60;;;;;;;3.25;33.19;99456.50;6305192;28;20360;-36
2023/02/09 14:13:15;;;;;;;6.37;4.70;;;;;;;3.15;33.79;99468.94;6306415;28;20702;-36
2023/02/09 14:16:18;;;;;;;5.50;4.03;;;;;;;3.13;33.43;99469.09;6299921;28;20394;-36
2023/02/09 14:19:30;;;;;;;6.07;4.17;;;;;;;3.14;33.64;99469.91;6303390;28;20244;-35
2023/02/09 14:22:36;;;;;;;6.70;4.20;;;;;;;3.14;33.80;99469.91;6301421;28;20230;-35
2023/02/09 14:25:39;;;;;;;6.47;4.40;;;;;;;3.08;34.29;99474.81;6299792;28;20612;-35
2023/02/09 14:28:50;;;;;;;5.23;4.00;;;;;;;2.94;33.96;99463.97;6306406;28;20229;-35
2023/02/09 14:31:55;;;;;;;6.03;4.13;;;;;;;2.64;33.63;99426.47;6307136;28;20240;-35
2023/02/09 14:34:57;;;;;;;7.70;4.20;;;;;;;2.87;33.86;99462.91;6312806;28;20712;-35
2023/02/09 14:38:01;;;;;;;6.33;4.57;;;;;;;2.77;34.54;99447.19;6312104;28;20233;-35
2023/02/09 14:41:29;;;;;;;6.43;4.20;;;;;;;2.75;34.45;99457.00;6304264;28;20236;-35
2023/02/09 14:44:31;;;;;;;5.80;4.23;;;;;;;2.77;35.00;99458.53;6301620;28;20217;-35
2023/02/09 14:47:33;;;;;;;6.27;4.43;;;;;;;2.74;34.30;99452.72;6304623;28;20790;-35
2023/02/09 14:50:36;;;;;;;6.57;4.57;;;;;;;2.70;34.46;99465.34;6304566;28;20779;-35
2023/02/09 14:53:41;;;;;;;8.57;4.87;;;;;;;2.64;34.79;99460.69;6303442;28;20325;-36
2023/02/09 14:56:44;;;;;;;7.43;4.40;;;;;;;2.62;34.88;99452.13;6300890;28;20718;-35
2023/02/09 14:59:46;;;;;;;5.23;3.83;;;;;;;2.52;34.53;99448.72;6304803;28;20245;-35